Time;durP1;ratioP1;P1;durP2;ratioP2;P2;SDS_P1;SDS_P2;PMS_P1;PMS_P2;Temp;Humidity;BMP_temperature;BMP_pressure;BME280_temperature;BME280_humidity;BME280_pressure;Samples;Min_cycle;Max_cycle;Signal;HPM_P1;HPM_P2
2021/05/12 00:02:00;;;;;;;19.12;15.07;;;23.80;35.80;;;;;;4372878;32;20527;-34
2021/05/12 00:04:26;;;;;;;24.67;17.08;;;23.80;35.40;;;;;;4373466;32;20165;-34
2021/05/12 00:06:53;;;;;;;22.98;16.62;;;23.80;35.20;;;;;;4373255;32;20105;-35
2021/05/12 00:09:19;;;;;;;23.35;17.17;;;23.80;35.00;;;;;;4355371;32;20490;-35
2021/05/12 00:11:46;;;;;;;24.92;16.10;;;23.70;35.30;;;;;;4326336;33;20067;-35
2021/05/12 00:14:12;;;;;;;27.65;16.87;;;23.70;35.90;;;;;;4313885;33;20071;-35
2021/05/12 00:16:39;;;;;;;25.45;17.58;;;23.60;35.80;;;;;;4326155;33;20526;-46
2021/05/12 00:19:06;;;;;;;26.48;19.23;;;23.60;35.90;;;;;;4326364;33;20075;-36
2021/05/12 00:21:56;;;;;;;26.25;17.12;;;23.50;35.80;;;;;;4326228;33;20079;-37
2021/05/12 00:24:22;;;;;;;30.88;17.30;;;23.40;35.80;;;;;;4327846;33;20149;-35
2021/05/12 00:34:10;;;;;;;23.40;17.62;;;23.10;36.40;;;;;;4325709;33;20068;-37
2021/05/12 00:36:37;;;;;;;24.95;17.35;;;23.10;35.90;;;;;;4314160;33;20083;-36
2021/05/12 00:39:05;;;;;;;24.15;18.67;;;23.00;35.80;;;;;;4313779;33;20067;-36
2021/05/12 00:41:31;;;;;;;29.85;19.58;;;23.00;36.10;;;;;;4325468;33;20488;-36
2021/05/12 00:43:58;;;;;;;25.12;19.35;;;22.90;35.90;;;;;;4342673;32;20082;-36
2021/05/12 00:46:24;;;;;;;26.77;18.33;;;22.80;36.00;;;;;;4363501;32;20889;-35
2021/05/12 00:48:51;;;;;;;24.87;18.50;;;22.80;36.00;;;;;;4388311;32;20064;-35
2021/05/12 00:51:17;;;;;;;26.23;17.65;;;22.70;35.80;;;;;;4387884;32;20066;-35
2021/05/12 00:53:44;;;;;;;24.83;18.73;;;22.70;35.90;;;;;;4387833;32;20163;-35
2021/05/12 00:56:12;;;;;;;26.85;20.05;;;22.60;35.80;;;;;;4388249;32;20548;-35
2021/05/12 00:58:39;;;;;;;27.08;18.55;;;22.50;35.70;;;;;;4387954;32;20103;-36
2021/05/12 01:01:05;;;;;;;25.10;16.83;;;22.50;35.60;;;;;;4388427;32;20161;-36
2021/05/12 01:03:32;;;;;;;25.75;18.92;;;22.50;35.60;;;;;;4354906;32;20568;-36
2021/05/12 01:05:59;;;;;;;27.77;18.62;;;22.40;35.60;;;;;;4355752;32;20086;-36
2021/05/12 01:08:27;;;;;;;27.73;16.92;;;22.40;35.50;;;;;;4355641;32;20065;-36
2021/05/12 01:10:54;;;;;;;25.37;19.08;;;22.40;35.40;;;;;;4355838;32;20094;-36
2021/05/12 01:13:21;;;;;;;24.10;17.12;;;22.40;35.40;;;;;;4355326;32;20077;-34
2021/05/12 01:15:47;;;;;;;30.48;18.92;;;22.40;35.30;;;;;;4343263;32;20066;-35
2021/05/12 01:18:19;;;;;;;25.65;15.60;;;22.40;35.40;;;;;;4355542;32;20153;-35
2021/05/12 01:21:06;;;;;;;17.23;11.98;;;22.40;35.20;;;;;;4343657;32;20577;-36
2021/05/12 01:23:35;;;;;;;22.20;13.65;;;22.30;35.10;;;;;;4354987;32;20151;-35
2021/05/12 01:26:09;;;;;;;29.90;16.58;;;22.30;34.90;;;;;;4355310;32;20153;-35
2021/05/12 01:28:38;;;;;;;28.48;17.80;;;22.30;35.10;;;;;;4355481;32;20124;-35
2021/05/12 01:31:20;;;;;;;24.00;17.37;;;22.30;35.10;;;;;;4355078;32;20503;-35
2021/05/12 01:33:47;;;;;;;25.42;18.00;;;22.30;35.10;;;;;;4343031;32;20093;-35
2021/05/12 01:36:13;;;;;;;24.58;17.85;;;22.40;35.10;;;;;;4355157;32;20163;-35
2021/05/12 01:38:42;;;;;;;25.33;17.62;;;22.40;34.90;;;;;;4355059;32;20596;-36
2021/05/12 01:41:09;;;;;;;27.40;20.27;;;22.50;34.80;;;;;;4373103;32;20065;-35
2021/05/12 01:43:35;;;;;;;27.25;19.37;;;22.60;34.70;;;;;;4386037;32;20085;-35
2021/05/12 01:46:02;;;;;;;27.15;15.55;;;22.80;34.40;;;;;;4387637;32;20081;-36
2021/05/12 01:48:29;;;;;;;19.25;12.05;;;22.90;34.30;;;;;;4370788;32;20066;-35
2021/05/12 01:50:56;;;;;;;27.85;15.15;;;22.90;34.70;;;;;;4358659;32;20067;-34
2021/05/12 01:53:23;;;;;;;18.40;13.02;;;23.00;34.00;;;;;;4372792;32;20080;-35
2021/05/12 01:55:52;;;;;;;22.40;14.80;;;23.00;33.80;;;;;;4373039;32;20151;-37
2021/05/12 01:58:19;;;;;;;31.05;15.73;;;23.00;33.80;;;;;;4372633;32;20150;-36
2021/05/12 02:00:48;;;;;;;21.77;15.40;;;23.00;33.80;;;;;;4372478;32;20066;-36
2021/05/12 02:03:14;;;;;;;18.02;12.37;;;23.10;33.80;;;;;;4374977;32;20069;-36
2021/05/12 02:05:42;;;;;;;16.17;9.35;;;23.20;33.50;;;;;;4374991;32;20548;-37
2021/05/12 02:08:10;;;;;;;22.60;13.65;;;23.30;33.60;;;;;;4373368;32;20096;-37
2021/05/12 02:10:38;;;;;;;21.60;14.10;;;23.30;33.60;;;;;;4373609;32;20082;-35
2021/05/12 02:13:05;;;;;;;23.25;13.73;;;23.40;33.40;;;;;;4373180;32;20085;-36
2021/05/12 02:15:32;;;;;;;21.52;13.50;;;23.50;33.30;;;;;;4375061;32;20502;-42
2021/05/12 02:17:58;;;;;;;18.85;13.13;;;23.60;33.10;;;;;;4375225;32;20537;-36
2021/05/12 02:20:29;;;;;;;21.48;14.98;;;23.70;32.80;;;;;;4373726;32;20085;-35
2021/05/12 02:22:56;;;;;;;21.83;16.37;;;23.80;32.70;;;;;;4375113;32;20066;-34
2021/05/12 02:25:23;;;;;;;30.12;16.90;;;24.00;32.70;;;;;;4373670;32;20076;-36
2021/05/12 02:27:49;;;;;;;21.12;15.93;;;24.30;32.40;;;;;;4375183;32;20517;-36
2021/05/12 02:30:16;;;;;;;22.65;17.08;;;24.50;32.10;;;;;;4375006;32;20165;-37
2021/05/12 02:32:42;;;;;;;21.60;17.02;;;24.80;31.90;;;;;;4373224;32;20427;-37
2021/05/12 02:35:10;;;;;;;25.25;15.75;;;25.00;31.20;;;;;;4374896;32;20070;-37
2021/05/12 02:37:37;;;;;;;19.33;16.90;;;25.30;31.00;;;;;;4373425;32;20054;-37
2021/05/12 02:40:08;;;;;;;19.30;15.02;;;25.60;30.50;;;;;;4374352;32;20515;-36
2021/05/12 02:42:35;;;;;;;19.08;15.20;;;25.90;30.30;;;;;;4374358;32;20461;-38
2021/05/12 02:45:06;;;;;;;23.52;15.93;;;26.20;30.00;;;;;;4374580;32;20466;-36
2021/05/12 02:47:33;;;;;;;21.67;15.55;;;26.40;29.90;;;;;;4383545;32;20111;-37
2021/05/12 02:50:00;;;;;;;19.70;15.20;;;26.70;29.60;;;;;;4389552;32;20142;-37
2021/05/12 02:52:27;;;;;;;21.95;15.80;;;26.90;29.60;;;;;;4387976;32;20529;-36
2021/05/12 02:54:54;;;;;;;22.62;14.65;;;27.10;29.30;;;;;;4388345;32;20080;-38
2021/05/12 02:57:22;;;;;;;18.85;14.25;;;27.30;29.10;;;;;;4389734;32;20061;-38
2021/05/12 02:59:49;;;;;;;18.58;15.35;;;27.60;28.90;;;;;;4388212;32;20153;-38
2021/05/12 03:02:16;;;;;;;25.58;17.15;;;27.80;28.60;;;;;;4389353;32;20076;-39
2021/05/12 03:04:42;;;;;;;19.27;15.32;;;28.10;28.70;;;;;;4389469;32;20465;-37
2021/05/12 03:07:09;;;;;;;18.42;15.55;;;28.40;28.70;;;;;;4389662;32;20073;-37
2021/05/12 03:09:35;;;;;;;17.60;14.87;;;28.70;28.50;;;;;;4389186;32;20539;-40
2021/05/12 03:12:02;;;;;;;31.35;16.27;;;29.10;28.30;;;;;;4387594;32;20086;-37
2021/05/12 03:14:31;;;;;;;20.95;15.82;;;29.50;28.30;;;;;;4388885;32;20523;-36
2021/05/12 03:16:58;;;;;;;21.90;15.55;;;29.80;27.90;;;;;;4389494;32;20057;-36
2021/05/12 03:19:26;;;;;;;21.80;15.73;;;30.20;27.50;;;;;;4389385;32;20573;-38
2021/05/12 03:21:55;;;;;;;17.50;12.70;;;30.40;27.40;;;;;;4387862;32;20155;-38
2021/05/12 03:24:21;;;;;;;23.45;14.77;;;30.60;27.30;;;;;;4388881;32;20076;-38
2021/05/12 03:26:48;;;;;;;20.40;14.13;;;30.80;27.30;;;;;;4388651;32;20094;-38
2021/05/12 03:29:14;;;;;;;25.92;16.98;;;30.90;27.10;;;;;;4389235;32;20481;-38
2021/05/12 03:31:41;;;;;;;14.95;12.25;;;31.00;27.20;;;;;;4388951;32;20157;-37
2021/05/12 03:34:07;;;;;;;20.70;13.45;;;31.00;27.00;;;;;;4389053;32;20142;-37
2021/05/12 03:36:34;;;;;;;17.67;12.82;;;30.90;26.90;;;;;;4388793;32;20480;-37
2021/05/12 03:39:00;;;;;;;19.20;12.95;;;30.80;26.90;;;;;;4388961;32;20585;-38
2021/05/12 03:41:27;;;;;;;12.23;10.43;;;30.60;26.70;;;;;;4388906;32;20062;-38
2021/05/12 03:43:53;;;;;;;13.93;8.82;;;30.40;26.70;;;;;;4387516;32;20065;-38
2021/05/12 03:46:20;;;;;;;14.57;11.50;;;30.20;26.40;;;;;;4387190;32;20247;-38
2021/05/12 03:48:46;;;;;;;12.45;9.98;;;30.20;26.60;;;;;;4372229;32;20065;-37
2021/05/12 03:51:13;;;;;;;15.15;11.73;;;30.20;26.60;;;;;;4373690;32;20052;-40
2021/05/12 03:53:39;;;;;;;14.40;11.90;;;30.30;26.50;;;;;;4373883;32;20686;-39
2021/05/12 03:56:06;;;;;;;14.90;10.13;;;30.60;26.70;;;;;;4373234;32;20084;-39
2021/05/12 03:58:32;;;;;;;13.10;10.02;;;30.90;26.10;;;;;;4371856;32;20522;-38
2021/05/12 04:00:59;;;;;;;14.15;10.30;;;31.40;26.00;;;;;;4373652;32;20190;-39
2021/05/12 04:03:29;;;;;;;10.23;9.23;;;31.90;26.00;;;;;;4373534;32;20558;-39
2021/05/12 04:05:56;;;;;;;16.12;12.85;;;32.20;25.80;;;;;;4370704;32;20466;-37
2021/05/12 04:08:26;;;;;;;13.40;10.02;;;32.50;25.70;;;;;;4340660;33;20210;-38
2021/05/12 04:10:53;;;;;;;11.15;9.90;;;32.80;25.50;;;;;;4340968;33;20086;-38
2021/05/12 04:13:22;;;;;;;13.32;9.60;;;33.00;25.20;;;;;;4340878;33;20154;-39
2021/05/12 04:15:48;;;;;;;15.38;7.87;;;33.20;25.20;;;;;;4341284;33;20070;-38
2021/05/12 04:18:16;;;;;;;7.32;6.55;;;33.30;24.50;;;;;;4340451;33;20164;-38
2021/05/12 04:20:43;;;;;;;10.95;7.85;;;33.40;23.50;;;;;;4340863;33;20075;-38
2021/05/12 04:23:09;;;;;;;13.85;8.00;;;33.50;23.80;;;;;;4340750;33;20194;-38
2021/05/12 04:25:36;;;;;;;10.85;8.38;;;33.60;23.70;;;;;;4340068;32;20051;-38
2021/05/12 04:28:03;;;;;;;10.75;8.68;;;33.70;23.90;;;;;;4341047;33;20074;-36
2021/05/12 04:30:31;;;;;;;13.62;9.32;;;33.90;24.30;;;;;;4340974;33;20536;-38
2021/05/12 04:32:59;;;;;;;13.62;9.55;;;33.80;24.30;;;;;;4329092;33;20142;-40
2021/05/12 04:35:27;;;;;;;12.65;9.25;;;33.60;24.10;;;;;;4328327;33;20058;-39
2021/05/12 04:37:53;;;;;;;13.15;8.57;;;33.50;24.20;;;;;;4354471;32;20105;-39
2021/05/12 04:40:21;;;;;;;11.40;9.60;;;33.40;24.30;;;;;;4371049;32;20058;-38
2021/05/12 04:42:48;;;;;;;11.73;8.73;;;33.40;24.40;;;;;;4372794;32;20150;-37
2021/05/12 04:45:15;;;;;;;15.65;9.13;;;33.50;24.40;;;;;;4370925;32;20073;-39
2021/05/12 04:47:42;;;;;;;10.55;7.37;;;33.50;24.10;;;;;;4382605;32;20108;-40
2021/05/12 04:50:11;;;;;;;7.35;5.43;;;33.70;23.50;;;;;;4387928;32;20065;-40
2021/05/12 04:52:38;;;;;;;10.50;5.53;;;34.00;22.40;;;;;;4387540;32;20042;-41
2021/05/12 04:55:06;;;;;;;17.05;6.00;;;34.30;22.20;;;;;;4387671;32;20167;-40
2021/05/12 04:57:33;;;;;;;10.40;5.57;;;34.70;21.80;;;;;;4387758;32;20156;-40
2021/05/12 04:59:59;;;;;;;6.75;3.92;;;35.10;21.80;;;;;;4388049;32;20060;-39
2021/05/12 05:02:27;;;;;;;11.50;4.85;;;35.60;20.60;;;;;;4385675;32;20590;-40
2021/05/12 05:04:54;;;;;;;11.25;4.75;;;35.90;20.60;;;;;;4387461;32;20109;-40
2021/05/12 05:07:20;;;;;;;6.53;4.50;;;36.20;20.60;;;;;;4387958;32;20047;-41
2021/05/12 05:09:49;;;;;;;9.15;4.85;;;36.50;20.20;;;;;;4388019;32;20187;-39
2021/05/12 05:12:16;;;;;;;8.50;5.30;;;36.60;20.50;;;;;;4387706;32;20219;-38
2021/05/12 05:14:42;;;;;;;15.23;5.43;;;36.80;20.30;;;;;;4387838;32;20066;-39
2021/05/12 05:17:10;;;;;;;12.23;4.97;;;36.90;20.70;;;;;;4387812;32;20536;-39
2021/05/12 05:19:36;;;;;;;7.82;4.28;;;36.90;20.50;;;;;;4387836;32;20064;-38
2021/05/12 05:22:04;;;;;;;12.48;5.32;;;37.00;20.20;;;;;;4386381;32;20073;-39
2021/05/12 05:24:30;;;;;;;6.70;4.40;;;37.20;20.30;;;;;;4386544;32;20065;-40
2021/05/12 05:26:57;;;;;;;8.88;4.85;;;37.30;19.60;;;;;;4387782;32;20604;-40
2021/05/12 05:29:23;;;;;;;5.57;4.05;;;37.60;20.20;;;;;;4387460;32;20097;-41
2021/05/12 05:31:49;;;;;;;9.35;4.40;;;37.90;19.60;;;;;;4387398;32;20505;-40
2021/05/12 05:34:16;;;;;;;6.72;3.67;;;38.10;19.60;;;;;;4387606;32;20117;-39
2021/05/12 05:36:42;;;;;;;8.48;3.72;;;38.40;19.10;;;;;;4387803;32;20068;-39
2021/05/12 05:39:09;;;;;;;6.30;3.55;;;38.80;19.30;;;;;;4390405;32;20086;-39
2021/05/12 05:41:35;;;;;;;7.22;3.40;;;38.90;18.90;;;;;;4390478;32;20085;-38
2021/05/12 05:44:02;;;;;;;6.03;2.85;;;39.00;18.80;;;;;;4390767;32;20083;-40
2021/05/12 05:46:29;;;;;;;10.32;3.40;;;39.00;18.50;;;;;;4387712;32;20428;-39
2021/05/12 05:48:56;;;;;;;8.00;3.05;;;39.00;18.80;;;;;;4373961;32;20077;-39
2021/05/12 05:51:23;;;;;;;10.57;3.58;;;39.00;18.60;;;;;;4375405;32;20116;-45
2021/05/12 05:53:50;;;;;;;6.95;3.40;;;38.90;18.40;;;;;;4375157;32;20525;-38
2021/05/12 05:56:16;;;;;;;10.20;3.20;;;38.80;18.30;;;;;;4375435;32;20134;-39
2021/05/12 05:58:43;;;;;;;14.07;3.70;;;38.60;18.40;;;;;;4375004;32;20070;-38
2021/05/12 06:01:09;;;;;;;11.77;3.20;;;38.60;18.40;;;;;;4375382;32;20140;-38
2021/05/12 06:03:36;;;;;;;10.27;3.28;;;38.40;18.40;;;;;;4375365;32;20137;-39
2021/05/12 06:06:02;;;;;;;5.30;3.00;;;38.40;18.50;;;;;;4375229;32;20163;-39
2021/05/12 06:08:29;;;;;;;6.93;2.80;;;38.30;18.60;;;;;;4374978;32;20117;-39
2021/05/12 06:10:55;;;;;;;7.32;3.20;;;38.20;18.50;;;;;;4375117;32;20081;-41
2021/05/12 06:13:21;;;;;;;7.68;3.30;;;38.40;18.60;;;;;;4374645;32;20550;-40
2021/05/12 06:15:48;;;;;;;7.18;3.53;;;38.40;18.50;;;;;;4375146;32;20069;-39
2021/05/12 06:18:14;;;;;;;7.40;2.97;;;38.40;18.70;;;;;;4374649;32;20077;-39
2021/05/12 06:20:41;;;;;;;6.50;3.60;;;38.30;18.40;;;;;;4374413;32;20070;-40
2021/05/12 06:23:07;;;;;;;6.62;2.75;;;38.20;18.50;;;;;;4374917;32;20058;-40
2021/05/12 06:25:34;;;;;;;6.82;3.05;;;38.20;18.30;;;;;;4374701;32;20074;-39
2021/05/12 06:28:00;;;;;;;9.63;3.45;;;38.20;18.40;;;;;;4374752;32;20147;-40
2021/05/12 06:30:27;;;;;;;8.63;4.35;;;38.30;18.50;;;;;;4374800;32;20098;-39
2021/05/12 06:32:54;;;;;;;8.70;3.87;;;38.50;18.50;;;;;;4374396;32;20066;-39
2021/05/12 06:35:21;;;;;;;10.55;3.35;;;38.50;18.40;;;;;;4374325;32;20549;-39
2021/05/12 06:37:47;;;;;;;11.45;4.15;;;38.50;18.00;;;;;;4374612;32;20066;-38
2021/05/12 06:40:16;;;;;;;10.35;3.40;;;38.40;18.10;;;;;;4374014;32;20466;-37
2021/05/12 06:42:43;;;;;;;13.88;3.80;;;38.30;18.00;;;;;;4374108;32;20482;-38
2021/05/12 06:45:12;;;;;;;8.45;3.95;;;38.20;18.30;;;;;;4373880;32;20058;-35
2021/05/12 06:47:40;;;;;;;13.90;3.55;;;38.10;18.10;;;;;;4384549;32;20069;-40
2021/05/12 06:50:07;;;;;;;6.47;3.62;;;38.10;18.30;;;;;;4390538;32;20062;-40
2021/05/12 06:52:34;;;;;;;7.75;4.75;;;38.10;18.20;;;;;;4389811;32;20057;-40
2021/05/12 06:55:00;;;;;;;8.10;3.83;;;38.10;18.20;;;;;;4389417;32;20081;-40
2021/05/12 06:57:27;;;;;;;6.12;3.58;;;38.10;18.20;;;;;;4375189;32;20066;-40
2021/05/12 06:59:54;;;;;;;7.18;3.70;;;38.10;18.20;;;;;;4389438;32;20162;-39
2021/05/12 07:02:20;;;;;;;11.25;4.32;;;38.20;18.10;;;;;;4389038;32;20085;-39
2021/05/12 07:04:47;;;;;;;11.23;4.05;;;38.30;17.90;;;;;;4387772;32;20146;-40
2021/05/12 07:07:13;;;;;;;5.82;3.15;;;38.40;17.90;;;;;;4389289;32;20612;-40
2021/05/12 07:09:40;;;;;;;12.43;3.87;;;38.40;17.90;;;;;;4389334;32;20514;-40
2021/05/12 07:12:07;;;;;;;3.72;2.65;;;38.30;17.80;;;;;;4389496;32;20550;-39
2021/05/12 07:14:33;;;;;;;6.82;2.87;;;38.20;18.50;;;;;;4388832;32;20161;-39
2021/05/12 07:17:00;;;;;;;13.68;3.72;;;38.10;17.90;;;;;;4387544;32;20073;-39
2021/05/12 07:19:26;;;;;;;13.73;4.03;;;38.00;18.30;;;;;;4356234;32;20155;-39
2021/05/12 07:21:53;;;;;;;11.50;3.35;;;37.90;18.20;;;;;;4344455;32;20078;-39
2021/05/12 07:24:19;;;;;;;5.75;2.25;;;37.90;18.30;;;;;;4356352;32;20058;-40
2021/05/12 07:26:46;;;;;;;8.57;3.58;;;37.90;18.20;;;;;;4343852;32;20113;-39
2021/05/12 07:29:13;;;;;;;7.43;3.92;;;37.80;18.30;;;;;;4356762;32;20086;-35
2021/05/12 07:31:40;;;;;;;23.83;4.78;;;37.80;18.00;;;;;;4356654;32;20074;-38
2021/05/12 07:34:10;;;;;;;6.35;4.00;;;37.80;18.60;;;;;;4356485;32;20104;-40
2021/05/12 07:36:38;;;;;;;8.18;3.75;;;37.90;18.00;;;;;;4344944;32;20517;-39
2021/05/12 07:39:07;;;;;;;14.48;3.75;;;38.00;17.90;;;;;;4355943;32;20069;-40
2021/05/12 07:41:36;;;;;;;11.57;3.75;;;38.10;18.20;;;;;;4356383;32;20182;-39
2021/05/12 07:44:06;;;;;;;13.10;4.18;;;38.00;17.90;;;;;;4319600;32;21139;-39
2021/05/12 07:46:32;;;;;;;5.82;2.40;;;37.90;18.00;;;;;;4352938;32;20074;-39
2021/05/12 07:48:59;;;;;;;10.93;3.97;;;37.70;18.10;;;;;;4341237;33;20130;-39
2021/05/12 07:51:25;;;;;;;10.77;4.15;;;37.70;18.20;;;;;;4370183;32;20058;-39
2021/05/12 07:53:53;;;;;;;14.38;4.68;;;37.70;18.20;;;;;;4373359;32;20070;-39
2021/05/12 07:56:19;;;;;;;4.90;3.08;;;37.80;18.40;;;;;;4373740;32;20069;-39
2021/05/12 07:58:46;;;;;;;9.88;5.03;;;37.90;18.20;;;;;;4372967;32;20062;-38
2021/05/12 08:01:19;;;;;;;13.30;5.37;;;38.10;18.40;;;;;;4373447;32;20069;-39
2021/05/12 08:03:45;;;;;;;16.02;4.55;;;38.20;18.40;;;;;;4360401;32;20074;-37
2021/05/12 08:06:12;;;;;;;11.63;4.70;;;38.40;18.20;;;;;;4373318;32;20235;-38
2021/05/12 08:08:38;;;;;;;7.68;4.72;;;38.40;18.10;;;;;;4373313;32;20086;-40
2021/05/12 08:11:08;;;;;;;13.25;5.82;;;38.40;18.20;;;;;;4373190;32;20090;-39
2021/05/12 08:13:34;;;;;;;10.48;4.68;;;38.30;18.30;;;;;;4373330;32;20093;-40
2021/05/12 08:16:00;;;;;;;9.20;4.82;;;38.30;18.50;;;;;;4373190;32;20069;-40
2021/05/12 08:18:27;;;;;;;13.20;5.00;;;38.20;18.30;;;;;;4373199;32;20096;-38
2021/05/12 08:20:56;;;;;;;14.85;5.87;;;38.20;18.60;;;;;;4373338;32;20154;-39
2021/05/12 08:23:23;;;;;;;16.23;4.40;;;38.10;18.40;;;;;;4372990;32;20069;-39
2021/05/12 08:25:50;;;;;;;17.02;4.90;;;38.10;18.30;;;;;;4373427;32;20068;-39
2021/05/12 08:28:17;;;;;;;15.45;5.05;;;38.10;18.60;;;;;;4371734;32;20131;-38
2021/05/12 08:30:47;;;;;;;19.37;4.97;;;38.10;18.50;;;;;;4371640;32;20158;-40
2021/05/12 08:33:15;;;;;;;23.90;6.97;;;37.90;18.30;;;;;;4373532;32;20061;-40
2021/05/12 08:35:43;;;;;;;23.00;6.55;;;37.80;18.30;;;;;;4373059;32;20054;-40
2021/05/12 08:38:20;;;;;;;9.75;5.60;;;37.60;18.40;;;;;;4372604;32;20611;-40
2021/05/12 08:40:47;;;;;;;28.42;7.65;;;37.60;18.20;;;;;;4371044;32;20078;-37
2021/05/12 08:43:15;;;;;;;11.02;7.40;;;37.50;18.20;;;;;;4373373;32;20062;-40
2021/05/12 08:45:44;;;;;;;7.97;7.18;;;37.40;18.60;;;;;;4372663;32;20069;-38
2021/05/12 08:48:14;;;;;;;11.12;7.45;;;37.20;18.30;;;;;;4386091;32;20161;-40
2021/05/12 08:50:41;;;;;;;9.95;7.37;;;37.10;18.30;;;;;;4388179;32;20078;-41
2021/05/12 08:53:08;;;;;;;11.73;7.30;;;36.90;18.40;;;;;;4387684;32;20058;-40
2021/05/12 08:55:34;;;;;;;11.35;6.60;;;36.80;18.50;;;;;;4387527;32;20136;-39
2021/05/12 08:58:01;;;;;;;11.05;7.15;;;36.70;18.60;;;;;;4387589;32;20066;-39
2021/05/12 09:00:28;;;;;;;10.23;4.72;;;36.60;18.60;;;;;;4373881;32;20197;-40
2021/05/12 09:02:55;;;;;;;7.85;6.00;;;36.60;18.40;;;;;;4387775;32;20089;-38
2021/05/12 09:05:21;;;;;;;9.15;5.57;;;36.50;18.50;;;;;;4386226;32;20061;-41
2021/05/12 09:07:48;;;;;;;12.25;5.40;;;36.50;18.50;;;;;;4388183;32;20077;-36
2021/05/12 09:10:15;;;;;;;15.65;5.78;;;36.40;18.50;;;;;;4387595;32;20062;-39
2021/05/12 09:12:56;;;;;;;11.25;5.95;;;36.30;18.70;;;;;;4376933;32;20091;-40
2021/05/12 09:15:27;;;;;;;12.40;4.90;;;36.30;18.90;;;;;;4391057;32;20492;-40
2021/05/12 09:17:56;;;;;;;7.05;4.45;;;36.50;18.70;;;;;;4391056;32;20125;-38
2021/05/12 09:20:24;;;;;;;7.82;3.85;;;36.50;18.70;;;;;;4391156;32;20070;-38
2021/05/12 09:22:59;;;;;;;10.55;4.78;;;36.60;18.70;;;;;;4390569;32;20075;-38
2021/05/12 09:25:30;;;;;;;10.55;4.30;;;36.60;18.80;;;;;;4390861;32;20053;-38
2021/05/12 09:28:18;;;;;;;5.72;3.97;;;36.70;18.70;;;;;;4390533;32;20139;-40
2021/05/12 09:30:48;;;;;;;6.70;4.87;;;36.80;18.80;;;;;;4391272;32;20085;-40
2021/05/12 09:33:30;;;;;;;6.45;4.87;;;36.80;18.70;;;;;;4389651;32;20221;-38
2021/05/12 09:35:57;;;;;;;9.15;4.32;;;36.80;18.70;;;;;;4390420;32;20074;-40
2021/05/12 09:38:29;;;;;;;8.52;3.42;;;36.90;18.70;;;;;;4390491;32;20601;-40
2021/05/12 09:41:10;;;;;;;5.12;3.00;;;36.90;18.60;;;;;;4390304;32;20185;-40
2021/05/12 09:43:45;;;;;;;8.02;4.07;;;36.90;18.70;;;;;;4390288;32;20492;-40
2021/05/12 09:46:26;;;;;;;7.22;3.28;;;36.90;18.60;;;;;;4389803;32;20096;-40
2021/05/12 09:49:01;;;;;;;7.43;3.53;;;37.00;18.70;;;;;;4374098;32;20532;-40
2021/05/12 09:51:29;;;;;;;7.60;2.65;;;37.10;18.80;;;;;;4375526;32;20077;-39
2021/05/12 09:54:06;;;;;;;6.78;3.30;;;37.30;18.70;;;;;;4375467;32;20060;-39
2021/05/12 09:56:43;;;;;;;9.18;3.33;;;37.40;18.60;;;;;;4375456;32;20502;-39
2021/05/12 09:59:22;;;;;;;12.95;3.20;;;37.40;18.30;;;;;;4375425;32;20061;-40
2021/05/12 10:01:53;;;;;;;9.02;3.25;;;37.40;18.40;;;;;;4375296;32;20086;-40
2021/05/12 10:04:47;;;;;;;7.03;2.45;;;37.50;18.30;;;;;;4374996;32;20070;-38
2021/05/12 10:07:22;;;;;;;7.78;3.03;;;37.60;18.30;;;;;;4374998;32;20065;-39
2021/05/12 10:09:54;;;;;;;9.15;1.83;;;37.70;18.20;;;;;;4373761;32;20053;-40
2021/05/12 10:12:25;;;;;;;10.38;2.08;;;37.80;18.60;;;;;;4373669;32;20513;-39
2021/05/12 10:14:57;;;;;;;6.87;1.77;;;38.00;18.20;;;;;;4374870;32;20113;-37
2021/05/12 10:17:25;;;;;;;5.20;1.20;;;38.10;17.90;;;;;;4374893;32;20068;-39
2021/05/12 10:19:51;;;;;;;11.93;1.75;;;38.10;17.80;;;;;;4375139;32;20533;-37
2021/05/12 10:22:19;;;;;;;3.97;1.50;;;38.20;17.90;;;;;;4372483;32;20145;-40
2021/05/12 10:24:48;;;;;;;4.65;1.20;;;38.30;17.80;;;;;;4374894;32;20074;-39
2021/05/12 10:27:17;;;;;;;3.87;1.25;;;38.40;17.70;;;;;;4374925;32;20085;-38
2021/05/12 10:29:57;;;;;;;5.22;1.25;;;38.50;17.90;;;;;;4372925;32;20220;-41
2021/05/12 10:32:37;;;;;;;8.68;1.65;;;38.60;17.90;;;;;;4374795;32;20066;-39
2021/05/12 10:35:10;;;;;;;4.05;1.62;;;38.60;17.80;;;;;;4374956;32;20066;-40
2021/05/12 10:37:38;;;;;;;7.80;1.40;;;38.70;17.90;;;;;;4374477;32;20096;-40
2021/05/12 10:40:17;;;;;;;10.38;1.85;;;38.80;17.90;;;;;;4374679;32;20085;-41
2021/05/12 10:43:10;;;;;;;3.33;1.52;;;38.90;18.00;;;;;;4372693;32;20101;-40
2021/05/12 10:45:48;;;;;;;4.32;1.45;;;38.80;17.90;;;;;;4374194;32;20085;-40
2021/05/12 10:48:47;;;;;;;2.37;1.10;;;38.80;18.00;;;;;;4387736;32;20085;-40
2021/05/12 10:51:23;;;;;;;5.85;1.92;;;38.70;18.30;;;;;;4389345;32;21246;-39
2021/05/12 10:53:52;;;;;;;2.17;1.12;;;38.60;18.40;;;;;;4390025;32;20065;-40
2021/05/12 10:56:20;;;;;;;3.58;1.02;;;38.50;18.40;;;;;;4389780;32;20153;-40
2021/05/12 10:58:59;;;;;;;9.30;1.92;;;38.40;18.50;;;;;;4389235;32;20101;-40
2021/05/12 11:01:51;;;;;;;10.43;1.30;;;38.20;18.90;;;;;;4387928;32;20454;-38
2021/05/12 11:04:22;;;;;;;9.82;1.83;;;37.90;19.10;;;;;;4387825;32;20116;-41
2021/05/12 11:06:52;;;;;;;7.22;1.25;;;37.60;19.40;;;;;;4389164;32;20527;-46
2021/05/12 11:09:36;;;;;;;8.73;1.80;;;37.30;19.60;;;;;;4389424;32;20065;-40
2021/05/12 11:12:33;;;;;;;10.07;1.70;;;37.10;19.90;;;;;;4389034;32;20130;-40
2021/05/12 11:15:00;;;;;;;9.38;2.03;;;36.70;20.00;;;;;;4388291;32;20150;-38
2021/05/12 11:17:47;;;;;;;6.40;1.40;;;36.30;20.30;;;;;;4389167;32;20053;-38
2021/05/12 11:20:16;;;;;;;15.20;2.55;;;35.90;20.50;;;;;;4388832;32;20062;-39
2021/05/12 11:33:22;;;;;;;11.27;2.05;;;34.80;21.50;;;;;;4388668;32;20073;-39
2021/05/12 11:35:54;;;;;;;7.22;1.77;;;34.90;21.60;;;;;;4388818;32;20077;-40
2021/05/12 11:38:20;;;;;;;6.18;1.48;;;35.00;21.40;;;;;;4388647;32;20152;-39
2021/05/12 11:41:20;;;;;;;5.30;1.20;;;35.10;21.40;;;;;;4388547;32;20088;-41
2021/05/12 11:43:55;;;;;;;7.00;1.52;;;35.30;21.30;;;;;;4388538;32;20094;-40
2021/05/12 11:46:25;;;;;;;5.43;1.55;;;35.50;21.30;;;;;;4387153;32;20516;-40
2021/05/12 11:49:06;;;;;;;7.28;1.40;;;35.60;21.20;;;;;;4373608;32;20089;-40
2021/05/12 11:51:38;;;;;;;5.70;1.55;;;35.70;21.20;;;;;;4373491;32;20542;-39
2021/05/12 11:54:12;;;;;;;9.07;1.95;;;35.70;21.10;;;;;;4373566;32;20073;-40
2021/05/12 11:56:50;;;;;;;11.00;1.87;;;35.80;21.20;;;;;;4373412;32;20050;-40
2021/05/12 11:59:22;;;;;;;8.18;1.50;;;35.80;21.20;;;;;;4373255;32;20066;-40
2021/05/12 12:02:13;;;;;;;4.10;1.95;;;35.80;21.20;;;;;;4373568;32;20061;-40
2021/05/12 12:04:52;;;;;;;9.13;1.92;;;35.80;21.30;;;;;;4372939;32;20499;-41
2021/05/12 12:07:18;;;;;;;11.35;2.10;;;35.80;21.30;;;;;;4372619;32;20107;-40
2021/05/12 12:09:45;;;;;;;11.82;2.20;;;35.90;21.40;;;;;;4372907;32;20066;-41
2021/05/12 12:12:11;;;;;;;6.97;2.00;;;35.90;21.40;;;;;;4373796;32;20263;-39
2021/05/12 12:14:38;;;;;;;10.88;1.52;;;35.90;21.40;;;;;;4372742;32;20085;-41
2021/05/12 12:17:11;;;;;;;3.42;1.62;;;35.90;21.30;;;;;;4371181;32;20074;-41
2021/05/12 12:19:38;;;;;;;12.90;2.20;;;35.90;21.40;;;;;;4373164;32;20104;-40
2021/05/12 12:22:04;;;;;;;7.78;1.87;;;35.90;21.40;;;;;;4372553;32;20053;-40
2021/05/12 12:24:31;;;;;;;6.60;2.30;;;35.90;21.20;;;;;;4372642;32;20069;-38
2021/05/12 12:26:59;;;;;;;10.50;2.90;;;35.90;21.20;;;;;;4372852;32;20574;-41
2021/05/12 12:29:27;;;;;;;7.75;2.28;;;35.80;21.20;;;;;;4373094;32;20103;-41
2021/05/12 12:32:22;;;;;;;7.03;2.15;;;35.80;21.10;;;;;;4372737;32;20164;-41
2021/05/12 12:34:48;;;;;;;8.90;2.62;;;35.80;21.20;;;;;;4370740;32;20051;-41
2021/05/12 12:37:19;;;;;;;14.27;3.17;;;35.70;21.10;;;;;;4372587;32;20545;-40
2021/05/12 12:40:01;;;;;;;16.10;3.00;;;35.70;21.20;;;;;;4372353;32;20069;-39
2021/05/12 12:42:39;;;;;;;11.90;3.12;;;35.70;21.50;;;;;;4372466;32;20120;-40
2021/05/12 12:45:30;;;;;;;5.20;2.12;;;35.60;21.60;;;;;;4359139;32;20077;-39
2021/05/12 12:47:59;;;;;;;9.38;2.08;;;35.50;21.40;;;;;;4384765;32;20580;-40
2021/05/12 12:50:28;;;;;;;8.25;3.00;;;35.40;21.40;;;;;;4387551;32;20072;-40
2021/05/12 12:53:01;;;;;;;8.40;2.40;;;35.30;21.30;;;;;;4386080;32;20082;-41
2021/05/12 12:55:32;;;;;;;6.70;2.97;;;35.10;21.40;;;;;;4374725;32;20076;-40
2021/05/12 12:58:03;;;;;;;7.22;1.73;;;35.00;21.50;;;;;;4387930;32;20163;-41
2021/05/12 13:00:41;;;;;;;9.20;2.47;;;34.90;21.10;;;;;;4387909;32;20050;-39
2021/05/12 13:03:18;;;;;;;13.55;2.62;;;34.80;21.20;;;;;;4386595;32;20112;-42
2021/05/12 13:05:55;;;;;;;8.13;2.08;;;34.70;21.30;;;;;;4387754;32;20065;-40
2021/05/12 13:08:25;;;;;;;7.45;2.92;;;34.70;21.30;;;;;;4387742;32;20089;-38